Terminal Aerodrome Forecast
Issued by NWS

Home | Current Version | Previous Version | Text Only | Print | Product List | Glossary On
Versions: 1 2 3 4 5 6 7 8 9 10 11 12 13 14 15 16
000
FTUS44 KEWX 012300
TAFSSF
TAF
KSSF 012323Z 0200/0224 14012KT P6SM SCT090
     FM020600 17007KT P6SM BKN015
     FM021600 15010KT P6SM BKN040
     FM022100 13012G22KT P6SM SCT060 SCT250=

USA.gov is the U.S. government's official web portal to all federal, state and local government web resources and services.